sensor_id;sensor_type;location;lat;lon;timestamp;P1;durP1;ratioP1;P2;durP2;ratioP2
73173;SDS011;61702;55.010;73.404;2022-07-01T00:01:56;5.20;;;2.20;;
73173;SDS011;61702;55.010;73.404;2022-07-01T00:04:41;5.13;;;2.58;;
73173;SDS011;61702;55.010;73.404;2022-07-01T00:07:26;6.22;;;2.15;;
73173;SDS011;61702;55.010;73.404;2022-07-01T00:09:57;4.37;;;2.20;;
73173;SDS011;61702;55.010;73.404;2022-07-01T00:12:23;4.60;;;2.10;;
73173;SDS011;61702;55.010;73.404;2022-07-01T00:14:59;6.77;;;2.37;;
73173;SDS011;61702;55.010;73.404;2022-07-01T00:17:26;7.15;;;2.67;;
73173;SDS011;61702;55.010;73.404;2022-07-01T00:20:10;6.80;;;2.43;;
73173;SDS011;61702;55.010;73.404;2022-07-01T00:22:37;6.80;;;2.55;;
73173;SDS011;61702;55.010;73.404;2022-07-01T00:25:03;6.15;;;2.25;;
73173;SDS011;61702;55.010;73.404;2022-07-01T00:27:30;8.20;;;2.58;;
73173;SDS011;61702;55.010;73.404;2022-07-01T00:29:56;5.43;;;2.60;;
73173;SDS011;61702;55.010;73.404;2022-07-01T00:32:22;6.25;;;2.33;;
73173;SDS011;61702;55.010;73.404;2022-07-01T00:34:48;7.47;;;2.40;;
73173;SDS011;61702;55.010;73.404;2022-07-01T00:37:24;8.30;;;2.70;;
73173;SDS011;61702;55.010;73.404;2022-07-01T00:39:51;7.32;;;2.40;;
73173;SDS011;61702;55.010;73.404;2022-07-01T00:42:17;7.13;;;2.80;;
73173;SDS011;61702;55.010;73.404;2022-07-01T00:44:48;9.37;;;2.47;;
73173;SDS011;61702;55.010;73.404;2022-07-01T00:47:14;8.02;;;2.80;;
73173;SDS011;61702;55.010;73.404;2022-07-01T00:49:49;7.97;;;2.72;;
73173;SDS011;61702;55.010;73.404;2022-07-01T00:52:16;5.07;;;2.50;;
73173;SDS011;61702;55.010;73.404;2022-07-01T00:54:42;9.40;;;2.70;;
73173;SDS011;61702;55.010;73.404;2022-07-01T00:57:19;9.55;;;2.85;;
73173;SDS011;61702;55.010;73.404;2022-07-01T00:59:46;6.57;;;2.58;;
73173;SDS011;61702;55.010;73.404;2022-07-01T01:02:22;7.17;;;2.40;;
73173;SDS011;61702;55.010;73.404;2022-07-01T01:04:48;13.40;;;2.92;;
73173;SDS011;61702;55.010;73.404;2022-07-01T01:07:14;9.25;;;2.75;;
73173;SDS011;61702;55.010;73.404;2022-07-01T01:09:48;9.90;;;2.60;;
73173;SDS011;61702;55.010;73.404;2022-07-01T01:12:14;7.25;;;2.83;;
73173;SDS011;61702;55.010;73.404;2022-07-01T01:17:23;10.60;;;3.20;;
73173;SDS011;61702;55.010;73.404;2022-07-01T01:19:57;7.90;;;2.75;;
73173;SDS011;61702;55.010;73.404;2022-07-01T01:22:32;8.27;;;2.83;;
73173;SDS011;61702;55.010;73.404;2022-07-01T01:25:03;11.52;;;2.85;;
73173;SDS011;61702;55.010;73.404;2022-07-01T01:27:30;7.33;;;2.80;;
73173;SDS011;61702;55.010;73.404;2022-07-01T01:29:56;12.15;;;2.80;;
73173;SDS011;61702;55.010;73.404;2022-07-01T01:32:22;7.55;;;2.70;;
73173;SDS011;61702;55.010;73.404;2022-07-01T01:34:58;10.38;;;2.95;;
73173;SDS011;61702;55.010;73.404;2022-07-01T01:37:25;10.20;;;3.25;;
73173;SDS011;61702;55.010;73.404;2022-07-01T01:39:53;11.83;;;3.23;;
73173;SDS011;61702;55.010;73.404;2022-07-01T01:42:20;6.60;;;2.47;;
73173;SDS011;61702;55.010;73.404;2022-07-01T01:44:51;11.80;;;3.50;;
73173;SDS011;61702;55.010;73.404;2022-07-01T01:47:17;8.82;;;2.72;;
73173;SDS011;61702;55.010;73.404;2022-07-01T01:49:50;5.30;;;2.30;;
73173;SDS011;61702;55.010;73.404;2022-07-01T01:52:16;6.78;;;2.40;;
73173;SDS011;61702;55.010;73.404;2022-07-01T01:54:52;5.17;;;2.23;;
73173;SDS011;61702;55.010;73.404;2022-07-01T01:57:18;6.47;;;2.47;;
73173;SDS011;61702;55.010;73.404;2022-07-01T01:59:44;5.45;;;2.22;;
73173;SDS011;61702;55.010;73.404;2022-07-01T02:02:15;10.95;;;2.58;;
73173;SDS011;61702;55.010;73.404;2022-07-01T02:04:47;7.00;;;2.78;;
73173;SDS011;61702;55.010;73.404;2022-07-01T02:07:15;6.43;;;2.47;;
73173;SDS011;61702;55.010;73.404;2022-07-01T02:09:42;6.77;;;2.70;;
73173;SDS011;61702;55.010;73.404;2022-07-01T02:12:08;12.15;;;3.03;;
73173;SDS011;61702;55.010;73.404;2022-07-01T02:14:44;9.55;;;2.47;;
73173;SDS011;61702;55.010;73.404;2022-07-01T02:17:10;10.90;;;2.42;;
73173;SDS011;61702;55.010;73.404;2022-07-01T02:19:36;6.13;;;2.70;;
73173;SDS011;61702;55.010;73.404;2022-07-01T02:22:08;6.75;;;2.70;;
73173;SDS011;61702;55.010;73.404;2022-07-01T02:24:34;9.68;;;2.53;;
73173;SDS011;61702;55.010;73.404;2022-07-01T02:27:00;9.07;;;2.67;;
73173;SDS011;61702;55.010;73.404;2022-07-01T02:29:27;8.43;;;2.60;;
73173;SDS011;61702;55.010;73.404;2022-07-01T02:32:04;5.32;;;2.47;;
73173;SDS011;61702;55.010;73.404;2022-07-01T02:34:30;5.80;;;2.38;;
73173;SDS011;61702;55.010;73.404;2022-07-01T02:36:56;7.20;;;2.50;;
73173;SDS011;61702;55.010;73.404;2022-07-01T02:39:32;8.63;;;2.45;;
73173;SDS011;61702;55.010;73.404;2022-07-01T02:42:00;5.07;;;2.38;;
73173;SDS011;61702;55.010;73.404;2022-07-01T02:44:45;9.63;;;2.60;;
73173;SDS011;61702;55.010;73.404;2022-07-01T02:47:11;12.68;;;2.90;;
73173;SDS011;61702;55.010;73.404;2022-07-01T02:49:38;8.45;;;2.65;;
73173;SDS011;61702;55.010;73.404;2022-07-01T02:52:05;10.50;;;2.58;;
73173;SDS011;61702;55.010;73.404;2022-07-01T02:54:31;8.57;;;3.00;;
73173;SDS011;61702;55.010;73.404;2022-07-01T02:56:57;6.55;;;2.22;;
73173;SDS011;61702;55.010;73.404;2022-07-01T02:59:24;8.57;;;3.00;;
73173;SDS011;61702;55.010;73.404;2022-07-01T03:01:50;6.85;;;3.03;;
73173;SDS011;61702;55.010;73.404;2022-07-01T03:04:26;7.13;;;2.63;;
73173;SDS011;61702;55.010;73.404;2022-07-01T03:06:58;8.82;;;2.67;;
73173;SDS011;61702;55.010;73.404;2022-07-01T03:09:27;8.65;;;3.00;;
73173;SDS011;61702;55.010;73.404;2022-07-01T03:11:54;6.80;;;2.78;;
73173;SDS011;61702;55.010;73.404;2022-07-01T03:14:21;10.10;;;3.03;;
73173;SDS011;61702;55.010;73.404;2022-07-01T03:16:48;7.28;;;2.67;;
73173;SDS011;61702;55.010;73.404;2022-07-01T03:19:19;6.93;;;2.57;;
73173;SDS011;61702;55.010;73.404;2022-07-01T03:21:45;16.15;;;2.90;;
73173;SDS011;61702;55.010;73.404;2022-07-01T03:24:15;8.13;;;3.08;;
73173;SDS011;61702;55.010;73.404;2022-07-01T03:26:42;4.90;;;2.63;;
73173;SDS011;61702;55.010;73.404;2022-07-01T03:29:08;7.60;;;2.37;;
73173;SDS011;61702;55.010;73.404;2022-07-01T03:31:34;6.93;;;2.90;;
73173;SDS011;61702;55.010;73.404;2022-07-01T03:34:00;3.90;;;1.80;;
73173;SDS011;61702;55.010;73.404;2022-07-01T03:36:26;7.00;;;2.42;;
73173;SDS011;61702;55.010;73.404;2022-07-01T03:39:02;5.93;;;2.40;;
73173;SDS011;61702;55.010;73.404;2022-07-01T03:41:30;6.20;;;2.60;;
73173;SDS011;61702;55.010;73.404;2022-07-01T03:46:25;9.18;;;2.55;;
73173;SDS011;61702;55.010;73.404;2022-07-01T03:51:25;11.05;;;2.92;;
73173;SDS011;61702;55.010;73.404;2022-07-01T03:56:44;10.25;;;2.90;;
73173;SDS011;61702;55.010;73.404;2022-07-01T03:59:10;7.03;;;3.07;;
73173;SDS011;61702;55.010;73.404;2022-07-01T04:01:36;10.85;;;3.17;;
73173;SDS011;61702;55.010;73.404;2022-07-01T04:04:03;10.35;;;2.60;;
73173;SDS011;61702;55.010;73.404;2022-07-01T04:06:29;6.43;;;2.77;;
73173;SDS011;61702;55.010;73.404;2022-07-01T04:08:55;6.70;;;3.27;;
73173;SDS011;61702;55.010;73.404;2022-07-01T04:11:22;14.52;;;3.08;;
73173;SDS011;61702;55.010;73.404;2022-07-01T04:16:28;7.78;;;3.33;;
73173;SDS011;61702;55.010;73.404;2022-07-01T04:21:25;11.30;;;3.20;;
73173;SDS011;61702;55.010;73.404;2022-07-01T04:24:10;11.40;;;2.78;;
73173;SDS011;61702;55.010;73.404;2022-07-01T04:26:39;5.90;;;2.55;;
73173;SDS011;61702;55.010;73.404;2022-07-01T04:29:06;6.60;;;3.13;;
73173;SDS011;61702;55.010;73.404;2022-07-01T04:31:33;7.63;;;3.28;;
73173;SDS011;61702;55.010;73.404;2022-07-01T04:34:03;8.00;;;2.70;;
73173;SDS011;61702;55.010;73.404;2022-07-01T04:36:30;14.15;;;3.50;;
73173;SDS011;61702;55.010;73.404;2022-07-01T04:38:57;9.50;;;3.53;;
73173;SDS011;61702;55.010;73.404;2022-07-01T04:41:23;9.93;;;3.33;;
73173;SDS011;61702;55.010;73.404;2022-07-01T04:44:13;10.43;;;3.40;;
73173;SDS011;61702;55.010;73.404;2022-07-01T04:46:40;8.10;;;3.85;;
73173;SDS011;61702;55.010;73.404;2022-07-01T04:49:06;8.43;;;2.87;;
73173;SDS011;61702;55.010;73.404;2022-07-01T04:51:36;9.95;;;3.22;;
73173;SDS011;61702;55.010;73.404;2022-07-01T04:54:03;19.20;;;3.90;;
73173;SDS011;61702;55.010;73.404;2022-07-01T04:56:30;9.57;;;3.40;;
73173;SDS011;61702;55.010;73.404;2022-07-01T05:01:26;12.00;;;3.55;;
73173;SDS011;61702;55.010;73.404;2022-07-01T05:06:25;8.48;;;3.70;;
73173;SDS011;61702;55.010;73.404;2022-07-01T05:08:52;8.80;;;3.40;;
73173;SDS011;61702;55.010;73.404;2022-07-01T05:11:18;10.80;;;3.60;;
73173;SDS011;61702;55.010;73.404;2022-07-01T05:16:25;8.70;;;3.10;;
73173;SDS011;61702;55.010;73.404;2022-07-01T05:21:48;12.02;;;3.63;;
73173;SDS011;61702;55.010;73.404;2022-07-01T05:24:27;11.30;;;3.83;;
73173;SDS011;61702;55.010;73.404;2022-07-01T05:26:56;11.43;;;3.53;;
73173;SDS011;61702;55.010;73.404;2022-07-01T05:29:34;9.70;;;3.50;;
73173;SDS011;61702;55.010;73.404;2022-07-01T05:32:00;10.30;;;3.63;;
73173;SDS011;61702;55.010;73.404;2022-07-01T05:34:26;8.95;;;3.40;;
73173;SDS011;61702;55.010;73.404;2022-07-01T05:36:52;11.10;;;3.50;;
73173;SDS011;61702;55.010;73.404;2022-07-01T05:39:18;6.93;;;3.37;;
73173;SDS011;61702;55.010;73.404;2022-07-01T05:41:45;8.38;;;3.38;;
73173;SDS011;61702;55.010;73.404;2022-07-01T05:44:11;7.55;;;3.38;;
73173;SDS011;61702;55.010;73.404;2022-07-01T05:46:37;9.02;;;3.47;;
73173;SDS011;61702;55.010;73.404;2022-07-01T05:49:04;10.05;;;2.65;;
73173;SDS011;61702;55.010;73.404;2022-07-01T05:51:30;13.43;;;3.67;;
73173;SDS011;61702;55.010;73.404;2022-07-01T05:54:06;6.43;;;3.10;;
73173;SDS011;61702;55.010;73.404;2022-07-01T05:56:32;8.57;;;3.08;;
73173;SDS011;61702;55.010;73.404;2022-07-01T06:01:26;16.17;;;4.50;;
73173;SDS011;61702;55.010;73.404;2022-07-01T06:06:26;17.85;;;6.22;;
73173;SDS011;61702;55.010;73.404;2022-07-01T06:08:52;26.57;;;8.83;;
73173;SDS011;61702;55.010;73.404;2022-07-01T06:11:18;32.10;;;8.20;;
73173;SDS011;61702;55.010;73.404;2022-07-01T06:16:25;32.10;;;8.05;;
73173;SDS011;61702;55.010;73.404;2022-07-01T06:21:26;19.90;;;5.68;;
73173;SDS011;61702;55.010;73.404;2022-07-01T06:26:25;11.25;;;3.90;;
73173;SDS011;61702;55.010;73.404;2022-07-01T06:31:25;7.28;;;3.92;;
73173;SDS011;61702;55.010;73.404;2022-07-01T06:36:26;9.70;;;3.80;;
73173;SDS011;61702;55.010;73.404;2022-07-01T06:38:52;6.63;;;3.87;;
73173;SDS011;61702;55.010;73.404;2022-07-01T06:41:23;10.50;;;4.35;;
73173;SDS011;61702;55.010;73.404;2022-07-01T06:46:27;7.68;;;3.92;;
73173;SDS011;61702;55.010;73.404;2022-07-01T06:51:35;11.10;;;4.20;;
73173;SDS011;61702;55.010;73.404;2022-07-01T06:54:02;4.40;;;2.05;;
73173;SDS011;61702;55.010;73.404;2022-07-01T06:56:28;7.77;;;4.27;;
73173;SDS011;61702;55.010;73.404;2022-07-01T07:01:27;9.33;;;3.97;;
73173;SDS011;61702;55.010;73.404;2022-07-01T07:06:26;14.38;;;4.13;;
73173;SDS011;61702;55.010;73.404;2022-07-01T07:08:52;6.32;;;3.97;;
73173;SDS011;61702;55.010;73.404;2022-07-01T07:11:23;9.00;;;4.17;;
73173;SDS011;61702;55.010;73.404;2022-07-01T07:14:01;8.70;;;4.20;;
73173;SDS011;61702;55.010;73.404;2022-07-01T07:16:33;10.77;;;4.33;;
73173;SDS011;61702;55.010;73.404;2022-07-01T07:19:05;7.63;;;4.80;;
73173;SDS011;61702;55.010;73.404;2022-07-01T07:21:31;12.77;;;4.63;;
73173;SDS011;61702;55.010;73.404;2022-07-01T07:26:25;13.80;;;5.70;;
73173;SDS011;61702;55.010;73.404;2022-07-01T07:31:37;13.18;;;4.85;;
73173;SDS011;61702;55.010;73.404;2022-07-01T07:34:03;15.95;;;3.35;;
73173;SDS011;61702;55.010;73.404;2022-07-01T07:36:29;11.65;;;5.28;;
73173;SDS011;61702;55.010;73.404;2022-07-01T07:38:57;14.40;;;5.10;;
73173;SDS011;61702;55.010;73.404;2022-07-01T07:41:24;9.40;;;4.47;;
73173;SDS011;61702;55.010;73.404;2022-07-01T07:46:31;8.32;;;4.43;;
73173;SDS011;61702;55.010;73.404;2022-07-01T07:51:25;12.57;;;4.75;;
73173;SDS011;61702;55.010;73.404;2022-07-01T07:54:02;9.10;;;4.55;;
73173;SDS011;61702;55.010;73.404;2022-07-01T07:56:29;9.93;;;5.13;;
73173;SDS011;61702;55.010;73.404;2022-07-01T08:01:25;12.97;;;5.20;;
73173;SDS011;61702;55.010;73.404;2022-07-01T08:06:25;8.90;;;4.55;;
73173;SDS011;61702;55.010;73.404;2022-07-01T08:08:54;8.00;;;4.45;;
73173;SDS011;61702;55.010;73.404;2022-07-01T08:11:26;7.60;;;4.47;;
73173;SDS011;61702;55.010;73.404;2022-07-01T08:16:36;10.75;;;4.20;;
73173;SDS011;61702;55.010;73.404;2022-07-01T08:19:14;12.23;;;4.80;;
73173;SDS011;61702;55.010;73.404;2022-07-01T08:21:40;8.30;;;4.38;;
73173;SDS011;61702;55.010;73.404;2022-07-01T08:24:07;7.03;;;4.20;;
73173;SDS011;61702;55.010;73.404;2022-07-01T08:26:41;8.25;;;4.65;;
73173;SDS011;61702;55.010;73.404;2022-07-01T08:29:31;10.57;;;4.63;;
73173;SDS011;61702;55.010;73.404;2022-07-01T08:35:14;11.07;;;5.10;;
73173;SDS011;61702;55.010;73.404;2022-07-01T08:37:56;9.82;;;5.03;;
73173;SDS011;61702;55.010;73.404;2022-07-01T08:40:36;15.70;;;5.65;;
73173;SDS011;61702;55.010;73.404;2022-07-01T08:43:11;8.53;;;4.83;;
73173;SDS011;61702;55.010;73.404;2022-07-01T08:45:48;12.45;;;5.20;;
73173;SDS011;61702;55.010;73.404;2022-07-01T08:48:59;8.45;;;4.86;;
73173;SDS011;61702;55.010;73.404;2022-07-01T08:51:32;7.68;;;5.00;;
73173;SDS011;61702;55.010;73.404;2022-07-01T08:54:15;9.30;;;4.72;;
73173;SDS011;61702;55.010;73.404;2022-07-01T08:56:47;12.47;;;5.20;;
73173;SDS011;61702;55.010;73.404;2022-07-01T08:59:25;11.43;;;5.13;;
73173;SDS011;61702;55.010;73.404;2022-07-01T09:01:58;9.38;;;4.75;;
73173;SDS011;61702;55.010;73.404;2022-07-01T09:05:03;9.73;;;5.30;;
73173;SDS011;61702;55.010;73.404;2022-07-01T09:07:43;11.48;;;5.25;;
73173;SDS011;61702;55.010;73.404;2022-07-01T09:10:25;12.70;;;5.80;;
73173;SDS011;61702;55.010;73.404;2022-07-01T09:12:51;9.95;;;5.43;;
73173;SDS011;61702;55.010;73.404;2022-07-01T09:15:30;11.75;;;5.53;;
73173;SDS011;61702;55.010;73.404;2022-07-01T09:18:13;8.88;;;5.18;;
73173;SDS011;61702;55.010;73.404;2022-07-01T09:20:47;11.02;;;5.97;;
73173;SDS011;61702;55.010;73.404;2022-07-01T09:24:02;11.82;;;5.05;;
73173;SDS011;61702;55.010;73.404;2022-07-01T09:27:02;11.63;;;5.88;;
73173;SDS011;61702;55.010;73.404;2022-07-01T09:30:01;10.60;;;5.70;;
73173;SDS011;61702;55.010;73.404;2022-07-01T09:32:35;9.63;;;6.05;;
73173;SDS011;61702;55.010;73.404;2022-07-01T09:35:06;15.60;;;6.67;;
73173;SDS011;61702;55.010;73.404;2022-07-01T09:37:58;14.10;;;5.85;;
73173;SDS011;61702;55.010;73.404;2022-07-01T09:41:11;10.63;;;6.10;;
73173;SDS011;61702;55.010;73.404;2022-07-01T09:43:33;18.60;;;6.55;;
73173;SDS011;61702;55.010;73.404;2022-07-01T09:46:14;12.37;;;5.80;;
73173;SDS011;61702;55.010;73.404;2022-07-01T09:49:02;11.60;;;5.70;;
73173;SDS011;61702;55.010;73.404;2022-07-01T09:51:31;13.60;;;6.10;;
73173;SDS011;61702;55.010;73.404;2022-07-01T09:54:01;11.85;;;6.20;;
73173;SDS011;61702;55.010;73.404;2022-07-01T09:56:32;10.53;;;6.27;;
73173;SDS011;61702;55.010;73.404;2022-07-01T10:01:25;43.60;;;11.80;;
73173;SDS011;61702;55.010;73.404;2022-07-01T10:06:36;36.08;;;10.70;;
73173;SDS011;61702;55.010;73.404;2022-07-01T10:09:31;19.33;;;8.82;;
73173;SDS011;61702;55.010;73.404;2022-07-01T10:14:57;17.40;;;8.20;;
73173;SDS011;61702;55.010;73.404;2022-07-01T10:20:24;21.13;;;8.88;;
73173;SDS011;61702;55.010;73.404;2022-07-01T10:22:59;30.60;;;10.03;;
73173;SDS011;61702;55.010;73.404;2022-07-01T10:25:49;20.55;;;8.70;;
73173;SDS011;61702;55.010;73.404;2022-07-01T10:31:07;14.07;;;8.37;;
73173;SDS011;61702;55.010;73.404;2022-07-01T10:34:02;14.52;;;8.70;;
73173;SDS011;61702;55.010;73.404;2022-07-01T10:36:36;19.17;;;10.30;;
73173;SDS011;61702;55.010;73.404;2022-07-01T10:44:10;11.00;;;8.75;;
73173;SDS011;61702;55.010;73.404;2022-07-01T10:46:41;29.05;;;10.60;;
73173;SDS011;61702;55.010;73.404;2022-07-01T10:49:12;57.03;;;13.13;;
73173;SDS011;61702;55.010;73.404;2022-07-01T10:54:12;36.00;;;11.13;;
73173;SDS011;61702;55.010;73.404;2022-07-01T10:56:42;30.67;;;12.47;;
73173;SDS011;61702;55.010;73.404;2022-07-01T10:59:18;33.47;;;11.60;;
73173;SDS011;61702;55.010;73.404;2022-07-01T11:01:53;34.17;;;11.50;;
73173;SDS011;61702;55.010;73.404;2022-07-01T11:04:19;35.77;;;11.87;;
73173;SDS011;61702;55.010;73.404;2022-07-01T11:06:56;30.13;;;12.10;;
73173;SDS011;61702;55.010;73.404;2022-07-01T11:09:32;26.05;;;11.45;;
73173;SDS011;61702;55.010;73.404;2022-07-01T11:12:08;21.02;;;10.27;;
73173;SDS011;61702;55.010;73.404;2022-07-01T11:14:43;16.10;;;10.18;;
73173;SDS011;61702;55.010;73.404;2022-07-01T11:17:13;23.00;;;9.95;;
73173;SDS011;61702;55.010;73.404;2022-07-01T11:19:39;21.10;;;9.70;;
73173;SDS011;61702;55.010;73.404;2022-07-01T11:22:11;26.77;;;11.73;;
73173;SDS011;61702;55.010;73.404;2022-07-01T11:24:51;40.77;;;11.67;;
73173;SDS011;61702;55.010;73.404;2022-07-01T11:27:24;33.97;;;11.82;;
73173;SDS011;61702;55.010;73.404;2022-07-01T11:29:52;45.23;;;13.23;;
73173;SDS011;61702;55.010;73.404;2022-07-01T11:32:32;39.90;;;13.00;;
73173;SDS011;61702;55.010;73.404;2022-07-01T11:35:04;38.97;;;12.30;;
73173;SDS011;61702;55.010;73.404;2022-07-01T11:37:52;43.72;;;12.55;;
73173;SDS011;61702;55.010;73.404;2022-07-01T11:40:47;51.25;;;11.80;;
73173;SDS011;61702;55.010;73.404;2022-07-01T11:46:34;58.47;;;13.53;;
73173;SDS011;61702;55.010;73.404;2022-07-01T11:49:01;37.10;;;14.00;;
73173;SDS011;61702;55.010;73.404;2022-07-01T11:51:42;47.83;;;13.93;;
73173;SDS011;61702;55.010;73.404;2022-07-01T11:54:19;49.30;;;14.43;;
73173;SDS011;61702;55.010;73.404;2022-07-01T11:57:12;45.80;;;15.27;;
73173;SDS011;61702;55.010;73.404;2022-07-01T12:34:37;38.40;;;12.93;;
73173;SDS011;61702;55.010;73.404;2022-07-01T12:37:07;41.40;;;13.37;;
73173;SDS011;61702;55.010;73.404;2022-07-01T12:39:46;49.00;;;13.60;;
73173;SDS011;61702;55.010;73.404;2022-07-01T12:44:54;35.03;;;14.00;;
73173;SDS011;61702;55.010;73.404;2022-07-01T12:48:16;40.00;;;14.18;;
73173;SDS011;61702;55.010;73.404;2022-07-01T12:50:45;43.35;;;13.98;;
73173;SDS011;61702;55.010;73.404;2022-07-01T12:53:21;24.77;;;10.53;;
73173;SDS011;61702;55.010;73.404;2022-07-01T12:55:50;25.90;;;11.65;;
73173;SDS011;61702;55.010;73.404;2022-07-01T12:58:28;19.45;;;9.55;;
73173;SDS011;61702;55.010;73.404;2022-07-01T13:01:07;20.83;;;10.85;;
73173;SDS011;61702;55.010;73.404;2022-07-01T13:03:34;17.10;;;10.53;;
73173;SDS011;61702;55.010;73.404;2022-07-01T13:06:01;20.50;;;10.90;;
73173;SDS011;61702;55.010;73.404;2022-07-01T13:08:27;15.70;;;10.03;;
73173;SDS011;61702;55.010;73.404;2022-07-01T13:10:53;19.15;;;9.50;;
73173;SDS011;61702;55.010;73.404;2022-07-01T13:13:19;19.92;;;9.40;;
73173;SDS011;61702;55.010;73.404;2022-07-01T13:15:47;17.35;;;9.50;;
73173;SDS011;61702;55.010;73.404;2022-07-01T13:18:14;19.65;;;9.70;;
73173;SDS011;61702;55.010;73.404;2022-07-01T13:20:45;16.77;;;10.23;;
73173;SDS011;61702;55.010;73.404;2022-07-01T13:23:11;17.92;;;10.60;;
73173;SDS011;61702;55.010;73.404;2022-07-01T13:25:39;14.27;;;9.55;;
73173;SDS011;61702;55.010;73.404;2022-07-01T13:28:05;18.98;;;10.05;;
73173;SDS011;61702;55.010;73.404;2022-07-01T13:30:31;20.67;;;10.38;;
73173;SDS011;61702;55.010;73.404;2022-07-01T13:32:58;17.83;;;10.68;;
73173;SDS011;61702;55.010;73.404;2022-07-01T13:35:24;15.50;;;9.88;;
73173;SDS011;61702;55.010;73.404;2022-07-01T13:37:51;15.77;;;9.03;;
73173;SDS011;61702;55.010;73.404;2022-07-01T13:40:17;16.05;;;9.52;;
73173;SDS011;61702;55.010;73.404;2022-07-01T13:42:44;15.17;;;8.90;;
73173;SDS011;61702;55.010;73.404;2022-07-01T13:45:10;12.88;;;8.68;;
73173;SDS011;61702;55.010;73.404;2022-07-01T13:47:36;15.27;;;9.52;;
73173;SDS011;61702;55.010;73.404;2022-07-01T13:50:03;18.88;;;9.00;;
73173;SDS011;61702;55.010;73.404;2022-07-01T13:52:29;18.03;;;9.77;;
73173;SDS011;61702;55.010;73.404;2022-07-01T13:54:56;19.15;;;9.43;;
73173;SDS011;61702;55.010;73.404;2022-07-01T13:57:23;20.15;;;7.90;;
73173;SDS011;61702;55.010;73.404;2022-07-01T13:59:49;22.50;;;10.05;;
73173;SDS011;61702;55.010;73.404;2022-07-01T14:04:48;50.53;;;15.07;;
73173;SDS011;61702;55.010;73.404;2022-07-01T14:15:50;106.45;;;20.30;;
73173;SDS011;61702;55.010;73.404;2022-07-01T14:25:07;66.45;;;16.23;;
73173;SDS011;61702;55.010;73.404;2022-07-01T14:27:42;80.67;;;18.70;;
73173;SDS011;61702;55.010;73.404;2022-07-01T14:30:12;89.78;;;20.00;;
73173;SDS011;61702;55.010;73.404;2022-07-01T14:32:38;83.17;;;18.00;;
73173;SDS011;61702;55.010;73.404;2022-07-01T14:35:05;67.10;;;18.47;;
73173;SDS011;61702;55.010;73.404;2022-07-01T14:37:32;27.65;;;11.85;;
73173;SDS011;61702;55.010;73.404;2022-07-01T14:40:09;20.95;;;10.77;;
73173;SDS011;61702;55.010;73.404;2022-07-01T14:42:38;20.87;;;10.37;;
73173;SDS011;61702;55.010;73.404;2022-07-01T14:45:06;17.87;;;9.93;;
73173;SDS011;61702;55.010;73.404;2022-07-01T14:47:34;13.95;;;9.60;;
73173;SDS011;61702;55.010;73.404;2022-07-01T14:50:01;18.40;;;10.70;;
73173;SDS011;61702;55.010;73.404;2022-07-01T14:52:27;22.13;;;11.00;;
73173;SDS011;61702;55.010;73.404;2022-07-01T14:54:55;21.20;;;10.73;;
73173;SDS011;61702;55.010;73.404;2022-07-01T14:57:27;13.85;;;10.05;;
73173;SDS011;61702;55.010;73.404;2022-07-01T15:00:43;52.88;;;15.60;;
73173;SDS011;61702;55.010;73.404;2022-07-01T15:03:21;41.60;;;14.47;;
73173;SDS011;61702;55.010;73.404;2022-07-01T15:05:49;49.58;;;15.35;;
73173;SDS011;61702;55.010;73.404;2022-07-01T15:08:15;44.43;;;16.17;;
73173;SDS011;61702;55.010;73.404;2022-07-01T15:10:53;44.30;;;14.43;;
73173;SDS011;61702;55.010;73.404;2022-07-01T15:13:32;25.63;;;11.57;;
73173;SDS011;61702;55.010;73.404;2022-07-01T15:16:01;19.80;;;10.43;;
73173;SDS011;61702;55.010;73.404;2022-07-01T15:18:27;18.55;;;10.15;;
73173;SDS011;61702;55.010;73.404;2022-07-01T15:21:00;18.50;;;10.10;;
73173;SDS011;61702;55.010;73.404;2022-07-01T15:23:27;18.15;;;10.23;;
73173;SDS011;61702;55.010;73.404;2022-07-01T15:25:55;14.63;;;10.13;;
73173;SDS011;61702;55.010;73.404;2022-07-01T15:28:25;24.90;;;10.17;;
73173;SDS011;61702;55.010;73.404;2022-07-01T15:31:02;20.67;;;10.75;;
73173;SDS011;61702;55.010;73.404;2022-07-01T15:33:28;22.30;;;11.53;;
73173;SDS011;61702;55.010;73.404;2022-07-01T15:35:55;17.25;;;9.68;;
73173;SDS011;61702;55.010;73.404;2022-07-01T15:38:21;22.38;;;10.20;;
73173;SDS011;61702;55.010;73.404;2022-07-01T15:40:47;17.45;;;9.68;;
73173;SDS011;61702;55.010;73.404;2022-07-01T15:43:22;18.17;;;10.43;;
73173;SDS011;61702;55.010;73.404;2022-07-01T15:45:48;20.48;;;9.93;;
73173;SDS011;61702;55.010;73.404;2022-07-01T15:48:14;18.23;;;9.90;;
73173;SDS011;61702;55.010;73.404;2022-07-01T15:50:41;14.23;;;9.63;;
73173;SDS011;61702;55.010;73.404;2022-07-01T15:53:10;18.20;;;10.60;;
73173;SDS011;61702;55.010;73.404;2022-07-01T15:55:36;15.35;;;10.63;;
73173;SDS011;61702;55.010;73.404;2022-07-01T15:58:10;20.30;;;10.85;;
73173;SDS011;61702;55.010;73.404;2022-07-01T16:00:40;20.23;;;10.60;;
73173;SDS011;61702;55.010;73.404;2022-07-01T16:03:09;14.77;;;10.13;;
73173;SDS011;61702;55.010;73.404;2022-07-01T16:05:42;16.17;;;10.13;;
73173;SDS011;61702;55.010;73.404;2022-07-01T16:08:31;14.10;;;9.70;;
73173;SDS011;61702;55.010;73.404;2022-07-01T16:11:09;18.97;;;9.43;;
73173;SDS011;61702;55.010;73.404;2022-07-01T16:13:57;17.88;;;10.02;;
73173;SDS011;61702;55.010;73.404;2022-07-01T16:16:24;17.25;;;10.13;;
73173;SDS011;61702;55.010;73.404;2022-07-01T16:18:52;18.40;;;10.20;;
73173;SDS011;61702;55.010;73.404;2022-07-01T16:21:20;18.80;;;9.82;;
73173;SDS011;61702;55.010;73.404;2022-07-01T16:23:49;22.03;;;10.27;;
73173;SDS011;61702;55.010;73.404;2022-07-01T16:26:27;17.85;;;9.82;;
73173;SDS011;61702;55.010;73.404;2022-07-01T16:28:53;15.17;;;9.67;;
73173;SDS011;61702;55.010;73.404;2022-07-01T16:31:23;21.83;;;9.63;;
73173;SDS011;61702;55.010;73.404;2022-07-01T16:33:50;17.98;;;9.85;;
73173;SDS011;61702;55.010;73.404;2022-07-01T16:36:37;14.80;;;10.70;;
73173;SDS011;61702;55.010;73.404;2022-07-01T16:39:12;18.08;;;10.80;;
73173;SDS011;61702;55.010;73.404;2022-07-01T16:42:16;18.06;;;10.79;;
73173;SDS011;61702;55.010;73.404;2022-07-01T16:45:18;19.80;;;10.50;;
73173;SDS011;61702;55.010;73.404;2022-07-01T16:47:39;21.67;;;11.10;;
73173;SDS011;61702;55.010;73.404;2022-07-01T16:50:16;18.65;;;11.77;;
73173;SDS011;61702;55.010;73.404;2022-07-01T16:52:45;15.85;;;10.77;;
73173;SDS011;61702;55.010;73.404;2022-07-01T16:55:19;20.35;;;11.07;;
73173;SDS011;61702;55.010;73.404;2022-07-01T16:58:01;17.00;;;9.83;;
73173;SDS011;61702;55.010;73.404;2022-07-01T17:00:43;18.13;;;10.40;;
73173;SDS011;61702;55.010;73.404;2022-07-01T17:03:12;17.05;;;10.15;;
73173;SDS011;61702;55.010;73.404;2022-07-01T17:05:39;17.75;;;10.57;;
73173;SDS011;61702;55.010;73.404;2022-07-01T17:08:16;15.68;;;9.98;;
73173;SDS011;61702;55.010;73.404;2022-07-01T17:10:55;17.42;;;10.05;;
73173;SDS011;61702;55.010;73.404;2022-07-01T17:13:30;14.93;;;9.67;;
73173;SDS011;61702;55.010;73.404;2022-07-01T17:15:56;15.52;;;10.80;;
73173;SDS011;61702;55.010;73.404;2022-07-01T17:18:26;16.83;;;9.90;;
73173;SDS011;61702;55.010;73.404;2022-07-01T17:20:53;13.75;;;9.93;;
73173;SDS011;61702;55.010;73.404;2022-07-01T17:23:27;16.55;;;10.27;;
73173;SDS011;61702;55.010;73.404;2022-07-01T17:29:25;18.02;;;9.85;;